Time;durP1;ratioP1;P1;durP2;ratioP2;P2;SDS_P1;SDS_P2;PMS_P1;PMS_P2;Temp;Humidity;BMP_temperature;BMP_pressure;BME280_temperature;BME280_humidity;BME280_pressure;Samples;Min_cycle;Max_cycle;Signal;HPM_P1;HPM_P2
2021/11/03 00:00:33;;;;;;;1.00;0.90;;;6.60;99.90;;;;;;6149972;23;20152;-79
2021/11/03 00:02:58;;;;;;;0.80;0.60;;;6.70;99.90;;;;;;6149987;23;20488;-81
2021/11/03 00:05:24;;;;;;;0.80;0.60;;;6.70;99.90;;;;;;6124228;23;20155;-80
2021/11/03 00:07:51;;;;;;;0.90;0.67;;;6.80;99.90;;;;;;6124146;23;20179;-80
2021/11/03 00:10:17;;;;;;;0.50;0.50;;;6.80;99.90;;;;;;6150344;23;20231;-80
2021/11/03 00:12:43;;;;;;;0.97;0.87;;;6.80;99.90;;;;;;6150461;23;20164;-78
2021/11/03 00:15:10;;;;;;;1.20;0.63;;;6.90;99.90;;;;;;6124044;23;20159;-79
2021/11/03 00:17:37;;;;;;;1.30;0.60;;;6.90;99.90;;;;;;6150338;23;20613;-78
2021/11/03 00:20:04;;;;;;;0.50;0.50;;;6.80;99.90;;;;;;6124239;23;20171;-80
2021/11/03 00:22:30;;;;;;;0.77;0.70;;;6.80;99.90;;;;;;6150383;23;20651;-82
2021/11/03 00:24:56;;;;;;;0.50;0.40;;;6.80;99.90;;;;;;6125771;23;20159;-77
2021/11/03 00:27:21;;;;;;;0.57;0.50;;;6.60;99.90;;;;;;6125203;23;20191;-77
2021/11/03 00:29:47;;;;;;;1.67;0.70;;;6.60;99.90;;;;;;6151569;23;20695;-79
2021/11/03 00:32:14;;;;;;;1.03;0.67;;;6.50;99.90;;;;;;6125204;23;20195;-77
2021/11/03 00:34:40;;;;;;;0.83;0.60;;;6.40;99.90;;;;;;6152094;23;20179;-77
2021/11/03 00:37:06;;;;;;;1.17;0.70;;;6.20;99.90;;;;;;6124837;23;20199;-81
2021/11/03 00:39:31;;;;;;;0.70;0.70;;;6.20;99.90;;;;;;6152331;23;20219;-79
2021/11/03 00:41:58;;;;;;;0.90;0.70;;;6.10;99.90;;;;;;6152061;23;20152;-78
2021/11/03 00:44:24;;;;;;;2.53;0.83;;;5.90;99.90;;;;;;6125229;23;20160;-81
2021/11/03 00:46:50;;;;;;;0.70;0.67;;;5.80;99.90;;;;;;6125277;23;20167;-79
2021/11/03 00:49:17;;;;;;;0.70;0.70;;;5.70;99.90;;;;;;6151284;23;20203;-81
2021/11/03 00:51:42;;;;;;;0.50;0.50;;;5.60;99.90;;;;;;6151018;23;20156;-78
2021/11/03 00:54:09;;;;;;;0.77;0.67;;;5.50;99.90;;;;;;6124855;23;20555;-79
2021/11/03 00:56:34;;;;;;;0.70;0.70;;;5.40;99.90;;;;;;6152188;23;20156;-79
2021/11/03 00:59:00;;;;;;;2.13;0.70;;;5.30;99.90;;;;;;6151157;23;20179;-78
2021/11/03 01:01:26;;;;;;;0.80;0.80;;;5.20;99.90;;;;;;6151463;23;20156;-78
2021/11/03 01:03:51;;;;;;;0.87;0.77;;;5.20;99.90;;;;;;6124413;23;20655;-79
2021/11/03 01:06:17;;;;;;;0.70;0.70;;;5.10;99.90;;;;;;6151051;23;20163;-78
2021/11/03 01:08:42;;;;;;;0.70;0.63;;;5.10;99.90;;;;;;6124396;23;20449;-79
2021/11/03 01:11:09;;;;;;;1.33;0.70;;;5.10;99.90;;;;;;6150186;23;20164;-79
2021/11/03 01:13:35;;;;;;;1.63;0.67;;;5.10;99.90;;;;;;6149771;23;20623;-79
2021/11/03 01:16:01;;;;;;;0.90;0.80;;;5.10;99.90;;;;;;6124002;23;20160;-80
2021/11/03 01:18:28;;;;;;;0.70;0.70;;;5.10;99.90;;;;;;6150239;23;20199;-79
2021/11/03 01:20:55;;;;;;;0.80;0.70;;;5.10;99.90;;;;;;6149583;23;20178;-79
2021/11/03 01:23:21;;;;;;;0.70;0.70;;;5.10;99.90;;;;;;6123668;23;20251;-79
2021/11/03 01:25:47;;;;;;;1.17;0.87;;;5.10;99.90;;;;;;6150147;23;20160;-79
2021/11/03 01:28:14;;;;;;;0.80;0.70;;;5.10;99.90;;;;;;6149718;23;20180;-79
2021/11/03 01:30:40;;;;;;;1.40;0.80;;;5.10;99.90;;;;;;6149447;23;20242;-80
2021/11/03 01:33:06;;;;;;;1.03;0.73;;;5.10;99.90;;;;;;6149609;23;20549;-79
2021/11/03 01:35:32;;;;;;;0.90;0.73;;;5.00;99.90;;;;;;6149596;23;20164;-79
2021/11/03 01:37:58;;;;;;;1.60;1.00;;;5.00;99.90;;;;;;6149692;23;20990;-79
2021/11/03 01:40:28;;;;;;;1.10;0.80;;;5.00;99.90;;;;;;6123849;23;20162;-80
2021/11/03 01:42:54;;;;;;;1.03;0.93;;;4.90;99.90;;;;;;6150071;23;20163;-78
2021/11/03 01:45:23;;;;;;;1.10;1.00;;;4.90;99.90;;;;;;6150312;23;20144;-80
2021/11/03 01:47:51;;;;;;;2.10;0.93;;;4.90;99.90;;;;;;6149412;23;20187;-79
2021/11/03 01:50:28;;;;;;;1.20;0.90;;;4.80;99.90;;;;;;6149498;23;20238;-79
2021/11/03 01:52:59;;;;;;;1.37;1.10;;;4.90;99.90;;;;;;6123732;23;20242;-77
2021/11/03 01:55:27;;;;;;;3.03;1.10;;;4.90;99.90;;;;;;6147695;23;20967;-76
2021/11/03 01:57:58;;;;;;;1.27;1.10;;;4.90;99.90;;;;;;6147677;23;20179;-77
2021/11/03 02:00:28;;;;;;;2.37;1.50;;;4.80;99.90;;;;;;6121546;23;20339;-77
2021/11/03 02:02:59;;;;;;;2.90;1.50;;;4.90;99.90;;;;;;6122124;23;20283;-76
2021/11/03 02:05:25;;;;;;;1.40;1.30;;;5.00;99.90;;;;;;6148918;23;20573;-79
2021/11/03 02:07:53;;;;;;;2.57;1.60;;;4.90;99.90;;;;;;6149077;23;20182;-80
2021/11/03 02:10:20;;;;;;;2.10;1.40;;;4.80;99.90;;;;;;6149717;23;20202;-80
2021/11/03 02:12:45;;;;;;;2.47;1.77;;;4.80;99.90;;;;;;6152332;23;20151;-78
2021/11/03 02:15:14;;;;;;;1.37;1.20;;;4.70;99.90;;;;;;6150383;23;20242;-78
2021/11/03 02:17:40;;;;;;;2.03;1.60;;;4.70;99.90;;;;;;6122682;23;20206;-78
2021/11/03 02:20:12;;;;;;;2.60;1.53;;;4.70;99.90;;;;;;6149645;23;20148;-79
2021/11/03 02:22:55;;;;;;;1.50;1.40;;;4.70;99.90;;;;;;6149073;23;20148;-80
2021/11/03 02:25:26;;;;;;;1.93;1.43;;;4.80;99.90;;;;;;6149043;23;20143;-80
2021/11/03 02:27:55;;;;;;;1.60;1.30;;;4.80;99.90;;;;;;6149716;23;20175;-79
2021/11/03 02:30:24;;;;;;;1.90;1.70;;;4.90;99.90;;;;;;6149624;23;20182;-78
2021/11/03 02:33:04;;;;;;;2.00;1.80;;;4.90;99.90;;;;;;6148654;23;20226;-79
2021/11/03 02:35:29;;;;;;;1.90;1.70;;;5.00;99.90;;;;;;6149495;23;20215;-79
2021/11/03 02:37:57;;;;;;;2.00;1.57;;;5.00;99.90;;;;;;6149422;23;20214;-80
2021/11/03 02:40:47;;;;;;;2.53;1.90;;;5.20;99.90;;;;;;6122901;23;20167;-78
2021/11/03 02:43:20;;;;;;;2.50;1.60;;;5.40;99.90;;;;;;6148364;23;20144;-78
2021/11/03 02:46:03;;;;;;;2.30;1.80;;;5.40;99.90;;;;;;6146124;23;20219;-76
2021/11/03 02:48:32;;;;;;;1.67;1.53;;;5.50;99.90;;;;;;6120799;23;20190;-78
2021/11/03 02:50:57;;;;;;;3.53;1.90;;;5.40;99.90;;;;;;6147784;23;20781;-78
2021/11/03 02:53:24;;;;;;;2.40;1.83;;;5.40;99.90;;;;;;6147910;23;20246;-79
2021/11/03 02:55:50;;;;;;;2.43;2.00;;;5.30;99.90;;;;;;6148689;23;20156;-79
2021/11/03 02:58:15;;;;;;;3.30;2.03;;;5.30;99.90;;;;;;6149291;23;20198;-79
2021/11/03 03:00:41;;;;;;;2.93;2.20;;;5.30;99.90;;;;;;6149568;23;20667;-80
2021/11/03 03:03:07;;;;;;;2.40;2.10;;;5.30;99.90;;;;;;6150199;23;20156;-80
2021/11/03 03:05:32;;;;;;;4.10;2.10;;;5.40;99.90;;;;;;6123640;23;20218;-78
2021/11/03 03:07:58;;;;;;;1.90;1.67;;;5.40;99.90;;;;;;6149614;23;20651;-81
2021/11/03 03:10:24;;;;;;;2.17;1.93;;;5.40;99.90;;;;;;6150460;23;20162;-81
2021/11/03 03:12:51;;;;;;;3.00;2.20;;;5.40;99.90;;;;;;6149695;23;20152;-77
2021/11/03 03:15:16;;;;;;;2.60;1.90;;;5.40;99.90;;;;;;6123743;23;20301;-79
2021/11/03 03:17:42;;;;;;;2.70;2.20;;;5.40;99.90;;;;;;6123410;23;20205;-78
2021/11/03 03:20:09;;;;;;;2.50;2.00;;;5.40;99.90;;;;;;6149743;23;20163;-75
2021/11/03 03:22:35;;;;;;;2.70;2.30;;;5.40;99.90;;;;;;6123572;23;20620;-79
2021/11/03 03:25:00;;;;;;;3.23;2.30;;;5.40;99.90;;;;;;6124456;23;20162;-78
2021/11/03 03:27:26;;;;;;;3.23;2.57;;;5.30;99.90;;;;;;6123906;23;20717;-80
2021/11/03 03:29:52;;;;;;;2.27;2.07;;;5.40;99.90;;;;;;6149684;23;20171;-80
2021/11/03 03:32:18;;;;;;;3.17;2.47;;;5.40;99.90;;;;;;6149523;23;20159;-76
2021/11/03 03:34:44;;;;;;;4.20;2.73;;;5.50;99.90;;;;;;6149515;23;20227;-77
2021/11/03 03:37:10;;;;;;;4.57;2.47;;;5.50;99.90;;;;;;6121581;23;20190;-79
2021/11/03 03:39:37;;;;;;;3.20;2.90;;;5.50;99.90;;;;;;6122057;23;20500;-78
2021/11/03 03:42:15;;;;;;;3.93;2.73;;;5.50;99.90;;;;;;6123479;23;20164;-79
2021/11/03 03:44:41;;;;;;;4.53;2.93;;;5.50;99.90;;;;;;6123031;23;20148;-79
2021/11/03 03:47:08;;;;;;;4.53;2.77;;;5.60;99.90;;;;;;6149246;23;20156;-78
2021/11/03 03:49:34;;;;;;;3.03;2.40;;;5.60;99.90;;;;;;6149390;23;20246;-79
2021/11/03 03:52:00;;;;;;;3.07;2.57;;;5.50;99.90;;;;;;6123195;23;20215;-78
2021/11/03 03:54:27;;;;;;;3.50;2.50;;;5.50;99.90;;;;;;6123606;23;20167;-78
2021/11/03 03:56:53;;;;;;;3.40;2.77;;;5.50;99.90;;;;;;6122746;23;20174;-78
2021/11/03 03:59:19;;;;;;;2.80;2.50;;;5.50;99.90;;;;;;6152456;23;20175;-80
2021/11/03 04:01:45;;;;;;;3.67;2.90;;;5.40;99.90;;;;;;6150003;23;20163;-77
2021/11/03 04:04:11;;;;;;;3.13;2.50;;;5.40;99.90;;;;;;6151421;23;20160;-77
2021/11/03 04:06:37;;;;;;;3.30;2.63;;;5.40;99.90;;;;;;6126366;23;20166;-81
2021/11/03 04:09:04;;;;;;;2.60;2.40;;;5.40;99.90;;;;;;6125119;23;20607;-79
2021/11/03 04:11:30;;;;;;;2.40;2.20;;;5.40;99.90;;;;;;6125332;23;20246;-78
2021/11/03 04:13:55;;;;;;;3.43;2.70;;;5.40;99.90;;;;;;6151285;23;20175;-77
2021/11/03 04:16:21;;;;;;;4.90;2.67;;;5.50;99.90;;;;;;6151805;23;20675;-79
2021/11/03 04:18:46;;;;;;;3.20;2.73;;;5.50;99.90;;;;;;6151350;23;20854;-79
2021/11/03 04:21:13;;;;;;;3.97;2.57;;;5.50;99.90;;;;;;6150461;23;20214;-78
2021/11/03 04:23:39;;;;;;;3.13;2.43;;;5.50;99.90;;;;;;6149961;23;20158;-78
2021/11/03 04:26:05;;;;;;;2.77;2.30;;;5.40;99.90;;;;;;6123618;23;20159;-79
2021/11/03 04:28:31;;;;;;;2.73;2.30;;;5.30;99.90;;;;;;6124008;23;20184;-81
2021/11/03 04:30:57;;;;;;;2.40;1.97;;;5.10;99.90;;;;;;6152258;23;20155;-76
2021/11/03 04:33:23;;;;;;;3.27;2.70;;;5.00;99.90;;;;;;6125421;23;20221;-76
2021/11/03 04:35:49;;;;;;;3.50;2.50;;;4.90;99.90;;;;;;6125768;23;20217;-77
2021/11/03 04:38:16;;;;;;;4.03;2.67;;;4.80;99.90;;;;;;6124795;23;20198;-75
2021/11/03 04:40:41;;;;;;;3.80;2.80;;;4.60;99.90;;;;;;6125466;23;20162;-78
2021/11/03 04:43:07;;;;;;;4.20;2.70;;;4.50;99.90;;;;;;6151819;23;20556;-78
2021/11/03 04:45:33;;;;;;;2.77;2.50;;;4.50;99.90;;;;;;6151922;23;20223;-79
2021/11/03 04:47:58;;;;;;;3.87;2.73;;;4.50;99.90;;;;;;6125029;23;20647;-77
2021/11/03 04:50:30;;;;;;;3.60;3.10;;;4.40;99.90;;;;;;6125848;23;20643;-77
2021/11/03 04:52:56;;;;;;;3.33;2.97;;;4.30;99.90;;;;;;6151749;23;20155;-80
2021/11/03 04:55:22;;;;;;;3.53;2.77;;;4.20;99.90;;;;;;6152113;23;20158;-80
2021/11/03 04:57:48;;;;;;;3.10;2.33;;;4.20;99.90;;;;;;6125466;23;20199;-80
2021/11/03 05:00:22;;;;;;;2.40;1.90;;;4.00;99.90;;;;;;6125467;23;20183;-80
2021/11/03 05:02:49;;;;;;;2.40;1.90;;;3.90;99.90;;;;;;6152355;23;20144;-80
2021/11/03 05:05:15;;;;;;;2.63;2.10;;;3.80;99.90;;;;;;6125782;23;20218;-79
2021/11/03 05:07:41;;;;;;;2.83;2.33;;;3.50;99.90;;;;;;6125540;23;20191;-80
2021/11/03 05:10:07;;;;;;;2.93;2.23;;;3.40;99.90;;;;;;6150292;23;20797;-79
2021/11/03 05:12:33;;;;;;;2.90;2.47;;;3.30;99.90;;;;;;6150982;23;20164;-78
2021/11/03 05:14:58;;;;;;;3.10;2.27;;;3.20;99.90;;;;;;6151439;23;21074;-78
2021/11/03 05:17:24;;;;;;;3.33;2.33;;;3.20;99.90;;;;;;6151222;23;20530;-77
2021/11/03 05:19:50;;;;;;;3.30;2.40;;;3.20;99.90;;;;;;6125360;23;20152;-79
2021/11/03 05:22:16;;;;;;;3.30;2.50;;;3.10;99.90;;;;;;6124390;23;20156;-78
2021/11/03 05:24:42;;;;;;;3.00;2.30;;;3.10;99.90;;;;;;6150473;23;20254;-76
2021/11/03 05:27:09;;;;;;;2.97;2.47;;;3.10;99.90;;;;;;6124877;23;20254;-76
2021/11/03 05:29:35;;;;;;;3.27;2.53;;;3.10;99.90;;;;;;6150488;23;20156;-77
2021/11/03 05:32:00;;;;;;;2.87;2.50;;;3.20;99.90;;;;;;6123360;23;20166;-79
2021/11/03 05:34:26;;;;;;;3.70;2.80;;;3.20;99.90;;;;;;6150690;23;20156;-79
2021/11/03 05:36:51;;;;;;;3.17;2.67;;;3.20;99.90;;;;;;6149794;23;20258;-77
2021/11/03 05:39:18;;;;;;;3.33;2.33;;;3.30;99.90;;;;;;6124052;23;20231;-76
2021/11/03 05:41:44;;;;;;;3.40;2.57;;;3.30;99.90;;;;;;6123422;23;20160;-79
2021/11/03 05:44:13;;;;;;;3.33;2.70;;;3.40;99.90;;;;;;6123870;23;20242;-76
2021/11/03 05:46:47;;;;;;;4.23;3.00;;;3.60;99.90;;;;;;6150380;23;20493;-77
2021/11/03 05:49:14;;;;;;;5.03;3.27;;;3.70;99.90;;;;;;6123288;23;20179;-78
2021/11/03 05:51:42;;;;;;;3.73;2.83;;;3.60;99.90;;;;;;6123192;23;20600;-78
2021/11/03 05:54:08;;;;;;;3.83;3.10;;;3.80;99.90;;;;;;6149696;23;20151;-78
2021/11/03 05:56:35;;;;;;;4.40;3.40;;;3.70;99.90;;;;;;6123183;23;20480;-76
2021/11/03 05:59:02;;;;;;;3.73;2.73;;;3.70;99.90;;;;;;6149204;23;20187;-78
2021/11/03 06:01:28;;;;;;;4.10;2.73;;;3.70;99.90;;;;;;6148985;23;20167;-78
2021/11/03 06:03:53;;;;;;;3.80;2.83;;;3.80;99.90;;;;;;6148991;23;20155;-76
2021/11/03 06:06:20;;;;;;;4.33;3.37;;;3.90;99.90;;;;;;6150132;23;20148;-77
2021/11/03 06:08:48;;;;;;;5.23;3.63;;;4.00;99.90;;;;;;6149290;23;20186;-80
2021/11/03 06:11:15;;;;;;;4.43;3.20;;;4.00;99.90;;;;;;6123214;23;20163;-77
2021/11/03 06:13:43;;;;;;;6.13;4.27;;;4.00;99.90;;;;;;6123004;23;20226;-76
2021/11/03 06:16:09;;;;;;;5.47;3.50;;;4.00;99.90;;;;;;6149728;23;20869;-78
2021/11/03 06:18:35;;;;;;;5.47;3.70;;;4.10;99.90;;;;;;6149671;23;20270;-80
2021/11/03 06:21:01;;;;;;;4.40;3.40;;;4.10;99.90;;;;;;6123201;23;20605;-80
2021/11/03 06:23:26;;;;;;;4.63;3.60;;;4.30;99.90;;;;;;6152306;23;20179;-77
2021/11/03 06:25:52;;;;;;;5.00;3.60;;;4.30;99.90;;;;;;6150308;23;20488;-77
2021/11/03 06:28:18;;;;;;;5.47;3.80;;;4.30;99.90;;;;;;6150235;23;20179;-78
2021/11/03 06:30:44;;;;;;;4.43;3.37;;;4.30;99.90;;;;;;6149722;23;20163;-76
2021/11/03 06:33:10;;;;;;;5.80;4.07;;;4.40;99.90;;;;;;6149745;23;20211;-78
2021/11/03 06:35:36;;;;;;;5.40;3.77;;;4.40;99.90;;;;;;6123381;23;20571;-78
2021/11/03 06:38:04;;;;;;;6.10;3.83;;;4.50;99.90;;;;;;6149006;23;20222;-78
2021/11/03 06:40:29;;;;;;;6.47;4.17;;;4.60;99.90;;;;;;6122590;23;20159;-79
2021/11/03 06:42:56;;;;;;;4.80;3.53;;;4.60;99.90;;;;;;6121013;23;20364;-79
2021/11/03 06:45:22;;;;;;;6.27;3.70;;;4.70;99.90;;;;;;6147262;23;20227;-78
2021/11/03 06:47:49;;;;;;;4.93;3.33;;;4.80;99.90;;;;;;6147856;23;20217;-78
2021/11/03 06:50:19;;;;;;;3.67;3.00;;;4.80;99.90;;;;;;6151553;23;20202;-80
2021/11/03 06:52:46;;;;;;;6.10;3.43;;;4.90;99.90;;;;;;6150662;23;20198;-80
2021/11/03 06:55:12;;;;;;;3.87;3.13;;;4.90;99.90;;;;;;6150481;23;20182;-77
2021/11/03 06:57:38;;;;;;;5.23;3.43;;;4.90;99.90;;;;;;6117043;23;20195;-77
2021/11/03 07:00:11;;;;;;;5.50;3.40;;;5.00;99.90;;;;;;6150337;23;20140;-77
2021/11/03 07:02:36;;;;;;;3.50;2.87;;;5.00;99.90;;;;;;6122261;23;20148;-78
2021/11/03 07:05:02;;;;;;;5.57;3.60;;;5.10;99.90;;;;;;6150645;23;20279;-79
2021/11/03 07:07:28;;;;;;;4.53;3.73;;;5.10;99.90;;;;;;6150898;23;20215;-78
2021/11/03 07:09:53;;;;;;;5.17;4.13;;;5.20;99.90;;;;;;6146145;23;20156;-78
2021/11/03 07:12:19;;;;;;;4.73;3.70;;;5.30;99.90;;;;;;6120185;23;20167;-79
2021/11/03 07:14:45;;;;;;;6.13;4.30;;;5.30;99.90;;;;;;6151141;23;20162;-77
2021/11/03 07:17:12;;;;;;;5.57;4.13;;;5.50;99.90;;;;;;6148488;23;20254;-79
2021/11/03 07:19:42;;;;;;;5.87;4.37;;;5.50;99.90;;;;;;6150582;23;20149;-77
2021/11/03 07:22:08;;;;;;;6.97;4.50;;;5.50;99.90;;;;;;6151027;23;20148;-77
2021/11/03 07:24:35;;;;;;;5.40;4.43;;;5.60;99.90;;;;;;6150859;23;20550;-80
2021/11/03 07:27:01;;;;;;;4.67;3.80;;;5.60;99.90;;;;;;6124750;23;20159;-78
2021/11/03 07:29:26;;;;;;;5.33;4.13;;;5.60;99.90;;;;;;6150939;23;20171;-78
2021/11/03 07:31:52;;;;;;;6.83;4.03;;;5.70;99.90;;;;;;6150376;23;20132;-78
2021/11/03 07:34:18;;;;;;;6.10;4.40;;;5.80;99.90;;;;;;6152923;23;20155;-79
2021/11/03 07:36:44;;;;;;;6.77;4.63;;;5.80;99.90;;;;;;6153274;23;20155;-78
2021/11/03 07:39:09;;;;;;;4.60;4.03;;;5.80;99.90;;;;;;6150781;23;20212;-78
2021/11/03 07:41:36;;;;;;;4.73;3.93;;;5.90;99.90;;;;;;6151914;23;20210;-78
2021/11/03 07:44:06;;;;;;;6.50;4.57;;;5.90;99.90;;;;;;6153121;23;20191;-78
2021/11/03 07:46:32;;;;;;;6.90;4.33;;;5.90;99.90;;;;;;6127013;23;20144;-80
2021/11/03 07:48:58;;;;;;;4.97;4.00;;;6.00;99.90;;;;;;6151663;23;20175;-79
2021/11/03 07:51:24;;;;;;;5.17;4.20;;;6.00;99.90;;;;;;6123693;23;20167;-79
2021/11/03 07:53:51;;;;;;;4.43;3.97;;;6.10;99.90;;;;;;6124354;23;20278;-77
2021/11/03 07:56:21;;;;;;;4.70;3.83;;;6.10;99.90;;;;;;6149289;23;20158;-77
2021/11/03 07:58:49;;;;;;;5.47;4.37;;;6.20;99.90;;;;;;6149363;23;20187;-79
2021/11/03 08:01:15;;;;;;;4.37;3.37;;;6.30;99.90;;;;;;6150267;23;20607;-79
2021/11/03 08:03:41;;;;;;;5.20;4.03;;;6.40;99.90;;;;;;6148912;23;20180;-78
2021/11/03 08:06:08;;;;;;;6.10;4.30;;;6.50;99.90;;;;;;6146966;23;20222;-79
2021/11/03 08:08:37;;;;;;;4.77;4.07;;;6.50;99.90;;;;;;6147601;23;20185;-79
2021/11/03 08:11:03;;;;;;;5.30;4.27;;;6.60;99.90;;;;;;6146507;23;20488;-78
2021/11/03 08:13:31;;;;;;;6.97;4.03;;;6.60;99.90;;;;;;6146082;23;20162;-79
2021/11/03 08:15:59;;;;;;;4.63;4.13;;;6.60;99.90;;;;;;6120631;23;20500;-79
2021/11/03 08:18:27;;;;;;;7.30;3.93;;;6.50;99.90;;;;;;6147639;23;20591;-79
2021/11/03 08:20:54;;;;;;;4.10;3.60;;;6.60;99.90;;;;;;6121637;23;20203;-79
2021/11/03 08:23:20;;;;;;;8.20;4.43;;;6.50;99.90;;;;;;6120912;23;20162;-79
2021/11/03 08:25:45;;;;;;;5.00;3.73;;;6.60;99.90;;;;;;6147874;23;20231;-78
2021/11/03 08:28:12;;;;;;;6.30;4.43;;;6.60;99.90;;;;;;6147069;23;20175;-78
2021/11/03 08:30:43;;;;;;;5.03;3.90;;;6.70;99.90;;;;;;6147800;23;20175;-78
2021/11/03 08:33:13;;;;;;;5.47;3.90;;;6.70;99.90;;;;;;6147265;23;20223;-79
2021/11/03 08:35:43;;;;;;;5.03;4.07;;;6.80;99.90;;;;;;6121868;23;20516;-77
2021/11/03 08:38:12;;;;;;;5.00;3.93;;;6.80;99.90;;;;;;6149701;23;20543;-78
2021/11/03 08:40:38;;;;;;;7.47;4.17;;;6.80;99.90;;;;;;6150211;23;20156;-77
2021/11/03 08:43:07;;;;;;;5.80;3.80;;;6.90;99.90;;;;;;6122763;23;20170;-79
2021/11/03 08:45:34;;;;;;;7.43;4.13;;;7.00;99.90;;;;;;6148732;23;20685;-78
2021/11/03 08:47:59;;;;;;;5.23;3.87;;;7.10;99.90;;;;;;6122435;23;20680;-77
2021/11/03 08:50:28;;;;;;;5.07;3.80;;;7.10;99.90;;;;;;6149376;23;20183;-78
2021/11/03 08:52:54;;;;;;;7.47;4.37;;;7.20;99.90;;;;;;6148741;23;20155;-77
2021/11/03 08:55:22;;;;;;;5.40;4.10;;;7.30;99.90;;;;;;6123327;23;20498;-78
2021/11/03 08:57:48;;;;;;;4.47;3.77;;;7.40;99.90;;;;;;6145873;23;20209;-77
2021/11/03 09:00:20;;;;;;;6.60;4.10;;;7.50;99.90;;;;;;6145170;23;20209;-79
2021/11/03 09:02:47;;;;;;;4.80;4.30;;;7.60;99.90;;;;;;6144968;23;20151;-79
2021/11/03 09:05:12;;;;;;;4.27;3.77;;;7.80;99.90;;;;;;6115757;23;20164;-77
2021/11/03 09:07:38;;;;;;;6.67;4.20;;;8.00;99.90;;;;;;6120249;23;20659;-78
2021/11/03 09:10:08;;;;;;;6.93;4.17;;;8.20;99.90;;;;;;6120420;23;20156;-78
2021/11/03 09:12:34;;;;;;;6.97;4.60;;;8.30;99.90;;;;;;6149185;23;20148;-78
2021/11/03 09:15:00;;;;;;;6.10;4.00;;;8.30;99.90;;;;;;6124264;23;20631;-80
2021/11/03 09:17:27;;;;;;;6.33;4.53;;;8.40;99.90;;;;;;6150181;23;20218;-77
2021/11/03 09:19:54;;;;;;;5.43;4.33;;;8.30;99.90;;;;;;6122807;23;20198;-78
2021/11/03 09:22:20;;;;;;;10.10;4.97;;;8.40;99.90;;;;;;6150762;23;20583;-78
2021/11/03 09:24:46;;;;;;;4.77;3.60;;;8.40;99.90;;;;;;6147506;23;20158;-80
2021/11/03 09:27:13;;;;;;;6.33;4.33;;;8.50;99.90;;;;;;6122464;23;20210;-77
2021/11/03 09:29:47;;;;;;;5.60;4.43;;;8.60;99.90;;;;;;6148623;23;20145;-77
2021/11/03 09:32:17;;;;;;;6.37;4.10;;;8.80;99.90;;;;;;6148723;23;20152;-77
2021/11/03 09:34:48;;;;;;;6.50;4.80;;;9.00;99.90;;;;;;6150883;23;21125;-78
2021/11/03 09:37:18;;;;;;;4.80;3.60;;;9.10;99.90;;;;;;6150413;23;20167;-78
2021/11/03 09:39:45;;;;;;;5.07;3.80;;;9.20;99.90;;;;;;6149782;23;20163;-79
2021/11/03 09:42:13;;;;;;;4.13;3.37;;;9.40;99.90;;;;;;6123777;23;20152;-78
2021/11/03 09:44:42;;;;;;;5.13;3.77;;;9.50;99.90;;;;;;6123521;23;20155;-78
2021/11/03 09:47:14;;;;;;;4.70;3.57;;;9.50;99.90;;;;;;6149210;23;20151;-78
2021/11/03 09:49:49;;;;;;;3.87;3.10;;;9.70;99.90;;;;;;6122533;23;20155;-79
2021/11/03 09:52:24;;;;;;;4.17;3.23;;;9.80;99.90;;;;;;6148822;23;20131;-78
2021/11/03 09:55:00;;;;;;;4.57;3.60;;;9.90;99.90;;;;;;6148093;23;20148;-78
2021/11/03 09:57:51;;;;;;;14.53;10.37;;;10.00;99.90;;;;;;6148563;23;20213;-78
2021/11/03 10:00:30;;;;;;;27.87;18.63;;;10.30;99.90;;;;;;6149802;23;20190;-77
2021/11/03 10:03:11;;;;;;;18.57;12.07;;;10.50;99.90;;;;;;6149054;23;20216;-78
2021/11/03 10:05:59;;;;;;;22.63;14.40;;;10.60;99.90;;;;;;6149897;23;20218;-78
2021/11/03 10:08:30;;;;;;;8.20;5.67;;;10.70;99.90;;;;;;6122561;23;20187;-78
2021/11/03 10:10:59;;;;;;;8.52;4.90;;;10.70;99.90;;;;;;6148107;23;20239;-79
2021/11/03 10:13:45;;;;;;;3.33;2.80;;;10.80;99.90;;;;;;6120219;23;20152;-78
2021/11/03 10:16:11;;;;;;;4.45;2.83;;;10.90;99.90;;;;;;6145822;23;20280;-78
2021/11/03 10:18:58;;;;;;;5.53;3.75;;;11.00;99.90;;;;;;6119236;23;20203;-78
2021/11/03 10:21:37;;;;;;;4.67;3.20;;;11.00;99.90;;;;;;6071106;23;20190;-77
2021/11/03 10:24:06;;;;;;;4.53;3.00;;;11.00;99.90;;;;;;6143081;23;20214;-77
2021/11/03 10:27:13;;;;;;;27.38;14.98;;;11.10;99.90;;;;;;6144411;23;20136;-79
2021/11/03 10:29:43;;;;;;;78.43;39.08;;;11.10;99.90;;;;;;6144685;23;20632;-78
2021/11/03 10:32:09;;;;;;;13.30;8.18;;;11.40;99.90;;;;;;6119827;23;20163;-80
2021/11/03 10:34:34;;;;;;;11.07;5.63;;;11.50;99.90;;;;;;6145906;23;20666;-80
2021/11/03 10:37:03;;;;;;;6.05;3.47;;;11.60;99.90;;;;;;6119622;23;20166;-77
2021/11/03 10:39:48;;;;;;;35.28;14.20;;;11.60;99.90;;;;;;6146457;23;20159;-80
2021/11/03 10:42:25;;;;;;;28.15;12.77;;;11.70;99.90;;;;;;6121898;23;20218;-78
2021/11/03 10:45:10;;;;;;;13.60;7.38;;;11.80;99.90;;;;;;6145685;23;20143;-78
2021/11/03 10:47:36;;;;;;;43.22;23.40;;;11.90;99.90;;;;;;6147702;23;20174;-77
2021/11/03 10:50:14;;;;;;;30.33;17.20;;;11.80;99.90;;;;;;6121587;23;20223;-80
2021/11/03 10:52:57;;;;;;;10.98;6.82;;;11.70;99.90;;;;;;6147717;23;20147;-80
2021/11/03 10:55:40;;;;;;;14.27;8.93;;;11.80;99.90;;;;;;6122323;23;20152;-79
2021/11/03 10:58:23;;;;;;;11.20;7.65;;;11.80;99.90;;;;;;6147865;23;20682;-77
2021/11/03 11:01:13;;;;;;;9.55;6.53;;;11.80;99.90;;;;;;6148320;23;20143;-78
2021/11/03 11:03:50;;;;;;;5.85;4.65;;;11.90;99.90;;;;;;6077333;23;20487;-78
2021/11/03 11:06:22;;;;;;;9.45;6.82;;;11.70;99.90;;;;;;6121129;23;20742;-78
2021/11/03 11:08:57;;;;;;;6.82;5.22;;;11.50;99.90;;;;;;6148330;23;20502;-80
2021/11/03 11:11:24;;;;;;;11.57;8.13;;;11.40;99.90;;;;;;6148771;23;20159;-78
2021/11/03 11:13:57;;;;;;;16.23;8.55;;;11.50;99.90;;;;;;6148368;23;20208;-79
2021/11/03 11:16:29;;;;;;;5.68;3.85;;;11.40;99.90;;;;;;6121973;23;20163;-79
2021/11/03 11:19:07;;;;;;;81.78;42.47;;;11.30;99.90;;;;;;6148514;23;20262;-79
2021/11/03 11:22:00;;;;;;;22.10;12.48;;;11.30;99.90;;;;;;6148983;23;20336;-80
2021/11/03 11:24:54;;;;;;;49.35;23.48;;;11.30;99.90;;;;;;6121250;23;20151;-80
2021/11/03 11:27:36;;;;;;;22.25;14.85;;;11.40;99.90;;;;;;6148498;23;20612;-79
2021/11/03 11:30:20;;;;;;;4.47;3.15;;;11.30;99.90;;;;;;6147568;23;20592;-79
2021/11/03 11:33:00;;;;;;;7.47;5.93;;;11.40;99.90;;;;;;6121980;23;20155;-78
2021/11/03 11:35:46;;;;;;;4.43;3.83;;;11.40;99.90;;;;;;6121560;23;20152;-78
2021/11/03 11:38:36;;;;;;;12.55;8.52;;;11.20;99.90;;;;;;6147566;23;20187;-79
2021/11/03 11:41:17;;;;;;;16.15;10.93;;;11.10;99.90;;;;;;6121739;23;20171;-79
2021/11/03 11:43:54;;;;;;;10.77;8.40;;;11.00;99.90;;;;;;6121312;23;20147;-78
2021/11/03 11:46:28;;;;;;;8.73;6.57;;;11.20;99.90;;;;;;6121750;23;20155;-79
2021/11/03 11:48:57;;;;;;;10.52;8.30;;;11.30;99.90;;;;;;6148792;23;20219;-78
2021/11/03 11:51:30;;;;;;;12.73;9.63;;;11.20;99.90;;;;;;6147965;23;20156;-78
2021/11/03 11:53:56;;;;;;;4.82;4.32;;;11.30;99.90;;;;;;6148119;23;20155;-79
2021/11/03 11:56:23;;;;;;;3.55;3.15;;;11.30;99.90;;;;;;6121427;23;20159;-79
2021/11/03 11:59:13;;;;;;;8.45;5.30;;;11.20;99.90;;;;;;6125499;23;20237;-80
2021/11/03 12:01:48;;;;;;;8.00;5.20;;;11.20;99.90;;;;;;6107200;23;20183;-79
2021/11/03 12:04:39;;;;;;;4.53;3.90;;;11.20;99.90;;;;;;6127114;23;20155;-79
2021/11/03 12:07:19;;;;;;;9.98;6.57;;;11.20;99.90;;;;;;6153056;23;20216;-81
2021/11/03 12:10:12;;;;;;;6.43;4.75;;;11.10;99.90;;;;;;6152804;23;20159;-80
2021/11/03 12:13:04;;;;;;;21.98;13.05;;;11.30;99.90;;;;;;6126549;23;20162;-80
2021/11/03 12:15:48;;;;;;;10.07;7.35;;;11.30;99.90;;;;;;6125952;23;20148;-81
2021/11/03 12:18:39;;;;;;;6.50;5.72;;;11.30;99.90;;;;;;6152626;23;20195;-79
2021/11/03 12:21:13;;;;;;;10.23;7.22;;;11.40;99.90;;;;;;6124931;23;20170;-79
2021/11/03 12:23:55;;;;;;;57.17;25.10;;;11.50;99.90;;;;;;6128201;23;20167;-81
2021/11/03 12:26:27;;;;;;;43.28;21.40;;;11.30;99.90;;;;;;6154459;23;20881;-80
2021/11/03 12:29:01;;;;;;;28.23;17.77;;;11.20;99.90;;;;;;6154131;23;20601;-79
2021/11/03 12:31:42;;;;;;;33.03;21.83;;;11.10;99.90;;;;;;6126782;23;20163;-80
2021/11/03 12:34:07;;;;;;;11.97;8.07;;;11.00;99.90;;;;;;6127791;23;20251;-80
2021/11/03 12:36:48;;;;;;;17.55;13.10;;;11.10;99.90;;;;;;6154449;23;20187;-79
2021/11/03 12:39:29;;;;;;;11.82;9.27;;;11.10;99.90;;;;;;6127383;23;20191;-80
2021/11/03 12:42:18;;;;;;;14.05;10.40;;;11.00;99.90;;;;;;6152645;23;20206;-80
2021/11/03 12:44:56;;;;;;;11.07;8.85;;;10.90;99.90;;;;;;6154248;23;20144;-79
2021/11/03 12:47:29;;;;;;;7.90;5.78;;;10.90;99.90;;;;;;6154090;23;20144;-81
2021/11/03 12:50:13;;;;;;;5.60;4.25;;;10.90;99.90;;;;;;6152777;23;20150;-80
2021/11/03 12:52:47;;;;;;;6.10;5.00;;;10.80;99.90;;;;;;6126326;23;20178;-81
2021/11/03 12:55:23;;;;;;;3.75;3.35;;;10.80;99.90;;;;;;6154208;23;20197;-81
2021/11/03 12:57:49;;;;;;;6.18;5.10;;;10.80;99.90;;;;;;6153506;23;20187;-81
2021/11/03 13:00:17;;;;;;;9.18;7.38;;;10.80;99.90;;;;;;6123736;23;20620;-79
2021/11/03 13:02:50;;;;;;;4.63;4.23;;;10.80;99.90;;;;;;6148463;23;20140;-79
2021/11/03 13:05:24;;;;;;;6.45;4.72;;;10.70;99.90;;;;;;6124379;23;20140;-77